Brooklyn — WDA8190 — position and weather

sailwx.info

Track history (hours):
 
Tides and Currents Weather Stations Pressure Air Temp Water Temp Dewpoint Dewpoint Depression Visibility Wind Speed Wind Dir Waves Ship Positions

Brooklyn

Owner: PORT IMPERIAL FERRY CORP, WEEHAWKEN, NJ. More information available from US FCC via Universal Licensing System.

Last reported at 2018-Feb-22 02:44 UTC. Time now 2018-Feb-22 04:41 UTC.
Position N 40°46' W 074°01'.

Length 19 m.

Type: Passenger vessel. MMSI: 366851670.

Date/timePositionNaut miles runAvg speedWind from/ knotsBaromVisibWave heightAir tempDewpointWater temp
2018-Feb-22 02:44N 40°46' W 074°01'314.2
2018-Feb-22 02:30N 40°43' W 074°01'1 2.4
2018-Feb-22 02:01N 40°44' W 074°02'0 0.1
2018-Feb-22 01:30N 40°44' W 074°02'0 0.0
2018-Feb-22 01:01N 40°44' W 074°02'0 0.1
2018-Feb-22 00:31N 40°44' W 074°02'1 2.3
2018-Feb-22 00:00N 40°43' W 074°01'1 2.4
2018-Feb-21 23:30N 40°44' W 074°02'1 2.4
2018-Feb-21 23:00N 40°43' W 074°01'1 2.2
2018-Feb-21 22:30N 40°44' W 074°01'1 2.2
2018-Feb-21 22:00N 40°43' W 074°01'1 2.4
2018-Feb-21 21:31N 40°44' W 074°01'1 2.3
2018-Feb-21 21:00N 40°43' W 074°01'1 2.5
2018-Feb-21 20:30N 40°44' W 074°02'1 2.4
2018-Feb-21 20:00N 40°43' W 074°01'0 0.1
2018-Feb-21 19:30N 40°43' W 074°01'1 2.3
2018-Feb-21 19:00N 40°44' W 074°02'0 0.1
2018-Feb-21 18:31N 40°44' W 074°02'0 0.1
2018-Feb-21 18:00N 40°44' W 074°02'0 0.1
2018-Feb-21 17:30N 40°44' W 074°02'0 0.1
2018-Feb-21 17:00N 40°44' W 074°01'0 0.1
2018-Feb-21 16:30N 40°44' W 074°02'0 0.0
2018-Feb-21 16:00N 40°44' W 074°02'0 0.1
2018-Feb-21 15:31N 40°44' W 074°02'0 0.0
2018-Feb-21 15:00N 40°44' W 074°02'1 2.4
2018-Feb-21 14:30N 40°43' W 074°01'1 2.4
2018-Feb-21 14:00N 40°44' W 074°02'1 2.5
2018-Feb-21 13:30N 40°43' W 074°01'1 2.5
2018-Feb-21 13:01N 40°44' W 074°02'1 2.4
2018-Feb-21 12:30N 40°43' W 074°01'1 2.4
2018-Feb-21 12:00N 40°44' W 074°02'1 2.5
2018-Feb-21 11:30N 40°43' W 074°01'1 2.5
2018-Feb-21 11:01N 40°44' W 074°02'2 4.5
2018-Feb-21 10:30N 40°46' W 074°01'0 0.0
2018-Feb-21 02:45N 40°46' W 074°01'313.5
2018-Feb-21 02:30N 40°43' W 074°01'1 2.3
2018-Feb-21 02:00N 40°44' W 074°02'0 0.1
2018-Feb-21 01:30N 40°44' W 074°02'0 0.0
2018-Feb-21 01:00N 40°44' W 074°02'0 0.0
2018-Feb-21 00:30N 40°44' W 074°02'1 2.4
2018-Feb-21 00:01N 40°43' W 074°01'1 2.4
2018-Feb-20 23:30N 40°44' W 074°02'1 2.4
2018-Feb-20 23:00N 40°43' W 074°01'1 2.4
2018-Feb-20 22:30N 40°44' W 074°02'1 2.5
2018-Feb-20 22:00N 40°43' W 074°01'1 2.4
2018-Feb-20 21:30N 40°44' W 074°02'1 2.4
2018-Feb-20 21:01N 40°43' W 074°01'1 2.3
2018-Feb-20 20:30N 40°44' W 074°02'1 2.4
2018-Feb-20 20:00N 40°43' W 074°01'0 0.0
2018-Feb-20 19:30N 40°43' W 074°01'1 2.4
2018-Feb-20 19:00N 40°44' W 074°02'0 0.1
2018-Feb-20 18:30N 40°44' W 074°02'0 0.0
2018-Feb-20 18:00N 40°44' W 074°02'0 0.0
2018-Feb-20 17:31N 40°44' W 074°02'0 0.0
2018-Feb-20 17:00N 40°44' W 074°02'0 0.1
2018-Feb-20 16:30N 40°44' W 074°02'0 0.0
2018-Feb-20 16:00N 40°44' W 074°01'0 0.2
2018-Feb-20 15:30N 40°44' W 074°02'0 0.1
2018-Feb-20 15:00N 40°44' W 074°02'1 2.3
2018-Feb-20 14:30N 40°43' W 074°01'1 2.4
2018-Feb-20 14:00N 40°44' W 074°02'1 2.5
2018-Feb-20 13:31N 40°43' W 074°01'1 2.5
2018-Feb-20 13:00N 40°44' W 074°02'1 2.4
2018-Feb-20 12:30N 40°43' W 074°01'1 2.4
2018-Feb-20 12:00N 40°44' W 074°02'1 2.3
2018-Feb-20 11:30N 40°43' W 074°01'3 3.3
2018-Feb-20 10:30N 40°46' W 074°01'0 0.0
2018-Feb-19 08:45N 40°46' W 074°01'0 0.0
2018-Feb-19 08:30N 40°46' W 074°01'0 0.0
2018-Feb-19 08:00N 40°46' W 074°01'0 0.0
2018-Feb-19 07:31N 40°46' W 074°01'0 0.0
2018-Feb-19 07:00N 40°46' W 074°01'0 0.0
2018-Feb-19 06:30N 40°46' W 074°01'0 0.0
2018-Feb-19 06:00N 40°46' W 074°01'0 0.0
2018-Feb-19 05:30N 40°46' W 074°01'0 0.0
2018-Feb-19 05:00N 40°46' W 074°01'0 0.0
2018-Feb-19 04:30N 40°46' W 074°01'0 0.0
2018-Feb-19 04:00N 40°46' W 074°01'0 0.0
2018-Feb-19 03:30N 40°46' W 074°01'0 0.0
2018-Feb-19 03:00N 40°46' W 074°01'0 0.0
2018-Feb-17 01:34N 40°46' W 074°01'0 2.0
2018-Feb-17 01:30N 40°46' W 074°01'4 8.2
2018-Feb-17 01:00N 40°42' W 074°00'4 8.3
2018-Feb-17 00:29N 40°47' W 074°01'4 8.9
2018-Feb-17 00:00N 40°42' W 074°01'1 1.2
2018-Feb-16 23:31N 40°43' W 074°01'4 6.9
2018-Feb-16 22:59N 40°46' W 074°00'4 8.9
2018-Feb-16 22:31N 40°42' W 074°00'1 2.4
2018-Feb-16 22:00N 40°43' W 074°01'3 6.8
2018-Feb-16 21:30N 40°47' W 074°01'4 9.0
2018-Feb-16 21:00N 40°42' W 074°00'4 1.8
2018-Feb-16 18:40N 40°46' W 074°01'0 1.2
2018-Feb-16 18:30N 40°46' W 074°01'0 0.1
2018-Feb-16 15:55N 40°46' W 074°01'2 5.6
2018-Feb-16 15:30N 40°44' W 074°02'2 3.3
2018-Feb-16 15:00N 40°42' W 074°01'3 5.7
2018-Feb-16 14:30N 40°45' W 074°01'1 2.7
2018-Feb-16 14:00N 40°47' W 074°01'4 7.8
2018-Feb-16 13:31N 40°43' W 074°01'1 2.0
2018-Feb-16 13:00N 40°42' W 074°00'3 6.8
2018-Feb-16 12:30N 40°45' W 074°01'1 1.9
2018-Feb-16 11:55N 40°47' W 074°01'410.3
2018-Feb-16 11:31N 40°42' W 074°01'4 7.6
2018-Feb-16 11:00N 40°46' W 074°01'0 0.0
2018-Feb-16 01:58N 40°46' W 074°01'0 0.0
2018-Feb-15 22:27N 40°46' W 074°01'2 5.2
2018-Feb-15 22:00N 40°44' W 074°02'0 0.0
2018-Feb-15 21:31N 40°44' W 074°02'1 2.4
2018-Feb-15 21:00N 40°43' W 074°01'1 2.4
2018-Feb-15 20:30N 40°44' W 074°02'1 2.4
2018-Feb-15 20:00N 40°43' W 074°01'0 0.1
2018-Feb-15 19:30N 40°43' W 074°01'1 2.4
2018-Feb-15 19:00N 40°44' W 074°02'0 0.1
2018-Feb-15 18:30N 40°44' W 074°02'0 0.1
2018-Feb-15 18:01N 40°44' W 074°02'0 0.1
2018-Feb-15 17:31N 40°44' W 074°02'0 0.0
2018-Feb-15 17:00N 40°44' W 074°02'0 0.0
2018-Feb-15 16:30N 40°44' W 074°02'0 0.0
2018-Feb-15 16:01N 40°44' W 074°02'0 0.0
2018-Feb-15 15:31N 40°44' W 074°02'0 0.0
2018-Feb-15 15:00N 40°44' W 074°02'1 2.5
2018-Feb-15 14:31N 40°43' W 074°01'1 2.5
2018-Feb-15 14:01N 40°44' W 074°02'1 2.5
2018-Feb-15 13:30N 40°43' W 074°01'1 2.5
2018-Feb-15 13:00N 40°44' W 074°02'1 2.5
2018-Feb-15 12:30N 40°43' W 074°01'1 2.5
2018-Feb-15 12:00N 40°44' W 074°02'1 2.5
2018-Feb-15 11:31N 40°43' W 074°01'1 2.5
2018-Feb-15 11:00N 40°44' W 074°02'2 4.6
2018-Feb-15 10:30N 40°46' W 074°01'0 0.0
2018-Feb-15 03:18N 40°46' W 074°01'0 0.0
2018-Feb-15 02:47N 40°46' W 074°01'311.9
2018-Feb-15 02:30N 40°43' W 074°01'1 2.5
2018-Feb-15 02:00N 40°44' W 074°02'0 0.1
2018-Feb-15 01:30N 40°44' W 074°02'0 0.1
2018-Feb-15 01:00N 40°44' W 074°02'0 0.1
2018-Feb-15 00:31N 40°44' W 074°02'1 2.3
2018-Feb-15 00:00N 40°43' W 074°01'1 2.3
2018-Feb-14 23:30N 40°44' W 074°02'1 2.4
2018-Feb-14 23:00N 40°43' W 074°01'1 2.4
2018-Feb-14 22:31N 40°44' W 074°02'1 2.4
2018-Feb-14 22:00N 40°43' W 074°01'1 2.3
2018-Feb-14 21:30N 40°44' W 074°02'1 2.3
2018-Feb-14 21:01N 40°43' W 074°01'0 0.1
2018-Feb-14 20:00N 40°43' W 074°01'0 0.1
2018-Feb-14 19:30N 40°43' W 074°01'1 2.5
2018-Feb-14 19:01N 40°44' W 074°02'0 0.1
2018-Feb-14 18:30N 40°44' W 074°02'0 0.0
2018-Feb-14 18:00N 40°44' W 074°02'0 0.1
2018-Feb-14 17:31N 40°44' W 074°02'0 0.0
2018-Feb-14 17:00N 40°44' W 074°02'0 0.1
2018-Feb-14 16:30N 40°44' W 074°02'0 0.1
2018-Feb-14 16:00N 40°44' W 074°02'0 0.0
2018-Feb-14 15:30N 40°44' W 074°02'0 0.0
2018-Feb-14 15:00N 40°44' W 074°02'1 2.2
2018-Feb-14 14:30N 40°43' W 074°01'1 2.2
2018-Feb-14 14:00N 40°44' W 074°02'1 2.5
2018-Feb-14 13:30N 40°43' W 074°01'1 2.5
2018-Feb-14 13:00N 40°44' W 074°02'1 2.3
2018-Feb-14 12:30N 40°43' W 074°01'1 2.3
2018-Feb-14 12:00N 40°44' W 074°02'1 2.6
2018-Feb-14 11:30N 40°43' W 074°01'1 2.5
2018-Feb-14 11:00N 40°44' W 074°02'2 4.4
2018-Feb-14 10:30N 40°46' W 074°01'0 0.0
2018-Feb-14 02:45N 40°46' W 074°01'314.1
2018-Feb-14 02:30N 40°43' W 074°01'1 2.3
2018-Feb-14 02:01N 40°44' W 074°02'0 0.0
2018-Feb-14 01:31N 40°44' W 074°02'0 0.0
2018-Feb-14 01:00N 40°44' W 074°02'0 0.1
2018-Feb-14 00:30N 40°44' W 074°02'1 2.4
2018-Feb-14 00:00N 40°43' W 074°01'1 2.5
2018-Feb-13 23:30N 40°44' W 074°02'1 2.4
2018-Feb-13 23:00N 40°43' W 074°01'1 2.4
2018-Feb-13 22:30N 40°44' W 074°02'1 2.3
2018-Feb-13 22:00N 40°43' W 074°01'1 2.3
2018-Feb-13 21:30N 40°44' W 074°02'1 2.5
2018-Feb-13 21:00N 40°43' W 074°01'1 2.5
2018-Feb-13 20:30N 40°44' W 074°02'1 2.4
2018-Feb-13 20:00N 40°43' W 074°01'0 0.0
2018-Feb-13 19:30N 40°43' W 074°01'1 2.4
2018-Feb-13 19:00N 40°44' W 074°02'0 0.1
2018-Feb-13 18:30N 40°44' W 074°02'0 0.0
2018-Feb-13 18:00N 40°44' W 074°02'0 0.1
2018-Feb-13 17:31N 40°44' W 074°02'0 0.1
2018-Feb-13 17:00N 40°44' W 074°02'0 0.0
2018-Feb-13 16:30N 40°44' W 074°02'0 0.0
2018-Feb-13 16:00N 40°44' W 074°02'0 0.1
2018-Feb-13 15:31N 40°44' W 074°02'0 0.0
2018-Feb-13 15:00N 40°44' W 074°02'1 2.4
2018-Feb-13 14:31N 40°43' W 074°01'1 2.3
2018-Feb-13 14:01N 40°44' W 074°02'1 2.4
2018-Feb-13 13:31N 40°43' W 074°01'1 2.4
2018-Feb-13 13:00N 40°44' W 074°02'1 2.4
2018-Feb-13 12:30N 40°43' W 074°01'1 2.4
2018-Feb-13 12:00N 40°44' W 074°02'1 2.5
2018-Feb-13 11:30N 40°43' W 074°01'1 2.5
2018-Feb-13 11:00N 40°44' W 074°02'2 4.5
2018-Feb-13 10:30N 40°46' W 074°01'0 0.0
2018-Feb-13 02:46N 40°46' W 074°01'312.6
2018-Feb-13 02:30N 40°43' W 074°01'1 2.3
2018-Feb-13 02:00N 40°44' W 074°02'0 0.0
2018-Feb-13 01:31N 40°44' W 074°02'0 0.1
2018-Feb-13 01:00N 40°44' W 074°01'0 0.0
2018-Feb-13 00:30N 40°44' W 074°01'1 2.3
2018-Feb-13 00:00N 40°43' W 074°01'1 2.3
2018-Feb-12 23:29N 40°44' W 074°02'1 2.6
2018-Feb-12 23:00N 40°43' W 074°01'1 2.3
2018-Feb-12 22:30N 40°44' W 074°01'1 2.3
2018-Feb-12 22:00N 40°43' W 074°01'1 2.4
2018-Feb-12 21:30N 40°44' W 074°02'1 2.4
2018-Feb-12 21:00N 40°43' W 074°01'1 2.4
2018-Feb-12 20:30N 40°44' W 074°02'1 2.5
2018-Feb-12 20:00N 40°43' W 074°01'0 0.1
2018-Feb-12 19:30N 40°43' W 074°01'1 2.4
2018-Feb-12 19:00N 40°44' W 074°02'0 0.1
2018-Feb-12 18:31N 40°44' W 074°02'0 0.0
2018-Feb-12 18:00N 40°44' W 074°02'0 0.0
2018-Feb-12 17:31N 40°44' W 074°02'0 0.0
2018-Feb-12 17:00N 40°44' W 074°02'0 0.0
2018-Feb-12 16:31N 40°44' W 074°02'0 0.0
2018-Feb-12 16:01N 40°44' W 074°02'0 0.1
2018-Feb-12 15:30N 40°44' W 074°02'0 0.1
2018-Feb-12 15:00N 40°44' W 074°02'1 2.4
2018-Feb-12 14:30N 40°43' W 074°01'1 2.5
2018-Feb-12 14:00N 40°44' W 074°02'1 2.5
2018-Feb-12 13:30N 40°43' W 074°01'1 2.4
2018-Feb-12 13:00N 40°44' W 074°02'1 2.4
2018-Feb-12 12:30N 40°43' W 074°01'1 2.4
2018-Feb-12 12:00N 40°44' W 074°02'1 2.4
2018-Feb-12 11:30N 40°43' W 074°01'1 2.4
2018-Feb-12 11:00N 40°44' W 074°02'  
Track history (hours):
 
Tides and Currents Weather Stations Pressure Air Temp Water Temp Dewpoint Dewpoint Depression Visibility Wind Speed Wind Dir Waves Ship Positions

Brooklyn

Owner: PORT IMPERIAL FERRY CORP, WEEHAWKEN, NJ. More information available from US FCC via Universal Licensing System.

Last reported at 2018-Feb-22 02:44 UTC. Time now 2018-Feb-22 04:41 UTC.
Position N 40°46' W 074°01'.

Length 19 m.

Type: Passenger vessel. MMSI: 366851670.

Date/timePositionNaut miles runAvg speedWind from/ knotsBaromVisibWave heightAir tempDewpointWater temp
2018-Feb-22 02:44N 40°46' W 074°01'314.2
2018-Feb-22 02:30N 40°43' W 074°01'1 2.4
2018-Feb-22 02:01N 40°44' W 074°02'0 0.1
2018-Feb-22 01:30N 40°44' W 074°02'0 0.0
2018-Feb-22 01:01N 40°44' W 074°02'0 0.1
2018-Feb-22 00:31N 40°44' W 074°02'1 2.3
2018-Feb-22 00:00N 40°43' W 074°01'1 2.4
2018-Feb-21 23:30N 40°44' W 074°02'1 2.4
2018-Feb-21 23:00N 40°43' W 074°01'1 2.2
2018-Feb-21 22:30N 40°44' W 074°01'1 2.2
2018-Feb-21 22:00N 40°43' W 074°01'1 2.4
2018-Feb-21 21:31N 40°44' W 074°01'1 2.3
2018-Feb-21 21:00N 40°43' W 074°01'1 2.5
2018-Feb-21 20:30N 40°44' W 074°02'1 2.4
2018-Feb-21 20:00N 40°43' W 074°01'0 0.1
2018-Feb-21 19:30N 40°43' W 074°01'1 2.3
2018-Feb-21 19:00N 40°44' W 074°02'0 0.1
2018-Feb-21 18:31N 40°44' W 074°02'0 0.1
2018-Feb-21 18:00N 40°44' W 074°02'0 0.1
2018-Feb-21 17:30N 40°44' W 074°02'0 0.1
2018-Feb-21 17:00N 40°44' W 074°01'0 0.1
2018-Feb-21 16:30N 40°44' W 074°02'0 0.0
2018-Feb-21 16:00N 40°44' W 074°02'0 0.1
2018-Feb-21 15:31N 40°44' W 074°02'0 0.0
2018-Feb-21 15:00N 40°44' W 074°02'1 2.4
2018-Feb-21 14:30N 40°43' W 074°01'1 2.4
2018-Feb-21 14:00N 40°44' W 074°02'1 2.5
2018-Feb-21 13:30N 40°43' W 074°01'1 2.5
2018-Feb-21 13:01N 40°44' W 074°02'1 2.4
2018-Feb-21 12:30N 40°43' W 074°01'1 2.4
2018-Feb-21 12:00N 40°44' W 074°02'1 2.5
2018-Feb-21 11:30N 40°43' W 074°01'1 2.5
2018-Feb-21 11:01N 40°44' W 074°02'2 4.5
2018-Feb-21 10:30N 40°46' W 074°01'0 0.0
2018-Feb-21 02:45N 40°46' W 074°01'313.5
2018-Feb-21 02:30N 40°43' W 074°01'1 2.3
2018-Feb-21 02:00N 40°44' W 074°02'0 0.1
2018-Feb-21 01:30N 40°44' W 074°02'0 0.0
2018-Feb-21 01:00N 40°44' W 074°02'0 0.0
2018-Feb-21 00:30N 40°44' W 074°02'1 2.4
2018-Feb-21 00:01N 40°43' W 074°01'1 2.4
2018-Feb-20 23:30N 40°44' W 074°02'1 2.4
2018-Feb-20 23:00N 40°43' W 074°01'1 2.4
2018-Feb-20 22:30N 40°44' W 074°02'1 2.5
2018-Feb-20 22:00N 40°43' W 074°01'1 2.4
2018-Feb-20 21:30N 40°44' W 074°02'1 2.4
2018-Feb-20 21:01N 40°43' W 074°01'1 2.3
2018-Feb-20 20:30N 40°44' W 074°02'1 2.4
2018-Feb-20 20:00N 40°43' W 074°01'0 0.0
2018-Feb-20 19:30N 40°43' W 074°01'1 2.4
2018-Feb-20 19:00N 40°44' W 074°02'0 0.1
2018-Feb-20 18:30N 40°44' W 074°02'0 0.0
2018-Feb-20 18:00N 40°44' W 074°02'0 0.0
2018-Feb-20 17:31N 40°44' W 074°02'0 0.0
2018-Feb-20 17:00N 40°44' W 074°02'0 0.1
2018-Feb-20 16:30N 40°44' W 074°02'0 0.0
2018-Feb-20 16:00N 40°44' W 074°01'0 0.2
2018-Feb-20 15:30N 40°44' W 074°02'0 0.1
2018-Feb-20 15:00N 40°44' W 074°02'1 2.3
2018-Feb-20 14:30N 40°43' W 074°01'1 2.4
2018-Feb-20 14:00N 40°44' W 074°02'1 2.5
2018-Feb-20 13:31N 40°43' W 074°01'1 2.5
2018-Feb-20 13:00N 40°44' W 074°02'1 2.4
2018-Feb-20 12:30N 40°43' W 074°01'1 2.4
2018-Feb-20 12:00N 40°44' W 074°02'1 2.3
2018-Feb-20 11:30N 40°43' W 074°01'3 3.3
2018-Feb-20 10:30N 40°46' W 074°01'0 0.0
2018-Feb-19 08:45N 40°46' W 074°01'0 0.0
2018-Feb-19 08:30N 40°46' W 074°01'0 0.0
2018-Feb-19 08:00N 40°46' W 074°01'0 0.0
2018-Feb-19 07:31N 40°46' W 074°01'0 0.0
2018-Feb-19 07:00N 40°46' W 074°01'0 0.0
2018-Feb-19 06:30N 40°46' W 074°01'0 0.0
2018-Feb-19 06:00N 40°46' W 074°01'0 0.0
2018-Feb-19 05:30N 40°46' W 074°01'0 0.0
2018-Feb-19 05:00N 40°46' W 074°01'0 0.0
2018-Feb-19 04:30N 40°46' W 074°01'0 0.0
2018-Feb-19 04:00N 40°46' W 074°01'0 0.0
2018-Feb-19 03:30N 40°46' W 074°01'0 0.0
2018-Feb-19 03:00N 40°46' W 074°01'0 0.0
2018-Feb-17 01:34N 40°46' W 074°01'0 2.0
2018-Feb-17 01:30N 40°46' W 074°01'4 8.2
2018-Feb-17 01:00N 40°42' W 074°00'4 8.3
2018-Feb-17 00:29N 40°47' W 074°01'4 8.9
2018-Feb-17 00:00N 40°42' W 074°01'1 1.2
2018-Feb-16 23:31N 40°43' W 074°01'4 6.9
2018-Feb-16 22:59N 40°46' W 074°00'4 8.9
2018-Feb-16 22:31N 40°42' W 074°00'1 2.4
2018-Feb-16 22:00N 40°43' W 074°01'3 6.8
2018-Feb-16 21:30N 40°47' W 074°01'4 9.0
2018-Feb-16 21:00N 40°42' W 074°00'4 1.8
2018-Feb-16 18:40N 40°46' W 074°01'0 1.2
2018-Feb-16 18:30N 40°46' W 074°01'0 0.1
2018-Feb-16 15:55N 40°46' W 074°01'2 5.6
2018-Feb-16 15:30N 40°44' W 074°02'2 3.3
2018-Feb-16 15:00N 40°42' W 074°01'3 5.7
2018-Feb-16 14:30N 40°45' W 074°01'1 2.7
2018-Feb-16 14:00N 40°47' W 074°01'4 7.8
2018-Feb-16 13:31N 40°43' W 074°01'1 2.0
2018-Feb-16 13:00N 40°42' W 074°00'3 6.8
2018-Feb-16 12:30N 40°45' W 074°01'1 1.9
2018-Feb-16 11:55N 40°47' W 074°01'410.3
2018-Feb-16 11:31N 40°42' W 074°01'4 7.6
2018-Feb-16 11:00N 40°46' W 074°01'0 0.0
2018-Feb-16 01:58N 40°46' W 074°01'0 0.0
2018-Feb-15 22:27N 40°46' W 074°01'2 5.2
2018-Feb-15 22:00N 40°44' W 074°02'0 0.0
2018-Feb-15 21:31N 40°44' W 074°02'1 2.4
2018-Feb-15 21:00N 40°43' W 074°01'1 2.4
2018-Feb-15 20:30N 40°44' W 074°02'1 2.4
2018-Feb-15 20:00N 40°43' W 074°01'0 0.1
2018-Feb-15 19:30N 40°43' W 074°01'1 2.4
2018-Feb-15 19:00N 40°44' W 074°02'0 0.1
2018-Feb-15 18:30N 40°44' W 074°02'0 0.1
2018-Feb-15 18:01N 40°44' W 074°02'0 0.1
2018-Feb-15 17:31N 40°44' W 074°02'0 0.0
2018-Feb-15 17:00N 40°44' W 074°02'0 0.0
2018-Feb-15 16:30N 40°44' W 074°02'0 0.0
2018-Feb-15 16:01N 40°44' W 074°02'0 0.0
2018-Feb-15 15:31N 40°44' W 074°02'0 0.0
2018-Feb-15 15:00N 40°44' W 074°02'1 2.5
2018-Feb-15 14:31N 40°43' W 074°01'1 2.5
2018-Feb-15 14:01N 40°44' W 074°02'1 2.5
2018-Feb-15 13:30N 40°43' W 074°01'1 2.5
2018-Feb-15 13:00N 40°44' W 074°02'1 2.5
2018-Feb-15 12:30N 40°43' W 074°01'1 2.5
2018-Feb-15 12:00N 40°44' W 074°02'1 2.5
2018-Feb-15 11:31N 40°43' W 074°01'1 2.5
2018-Feb-15 11:00N 40°44' W 074°02'2 4.6
2018-Feb-15 10:30N 40°46' W 074°01'0 0.0
2018-Feb-15 03:18N 40°46' W 074°01'0 0.0
2018-Feb-15 02:47N 40°46' W 074°01'311.9
2018-Feb-15 02:30N 40°43' W 074°01'1 2.5
2018-Feb-15 02:00N 40°44' W 074°02'0 0.1
2018-Feb-15 01:30N 40°44' W 074°02'0 0.1
2018-Feb-15 01:00N 40°44' W 074°02'0 0.1
2018-Feb-15 00:31N 40°44' W 074°02'1 2.3
2018-Feb-15 00:00N 40°43' W 074°01'1 2.3
2018-Feb-14 23:30N 40°44' W 074°02'1 2.4
2018-Feb-14 23:00N 40°43' W 074°01'1 2.4
2018-Feb-14 22:31N 40°44' W 074°02'1 2.4
2018-Feb-14 22:00N 40°43' W 074°01'1 2.3
2018-Feb-14 21:30N 40°44' W 074°02'1 2.3
2018-Feb-14 21:01N 40°43' W 074°01'0 0.1
2018-Feb-14 20:00N 40°43' W 074°01'0 0.1
2018-Feb-14 19:30N 40°43' W 074°01'1 2.5
2018-Feb-14 19:01N 40°44' W 074°02'0 0.1
2018-Feb-14 18:30N 40°44' W 074°02'0 0.0
2018-Feb-14 18:00N 40°44' W 074°02'0 0.1
2018-Feb-14 17:31N 40°44' W 074°02'0 0.0
2018-Feb-14 17:00N 40°44' W 074°02'0 0.1
2018-Feb-14 16:30N 40°44' W 074°02'0 0.1
2018-Feb-14 16:00N 40°44' W 074°02'0 0.0
2018-Feb-14 15:30N 40°44' W 074°02'0 0.0
2018-Feb-14 15:00N 40°44' W 074°02'1 2.2
2018-Feb-14 14:30N 40°43' W 074°01'1 2.2
2018-Feb-14 14:00N 40°44' W 074°02'1 2.5
2018-Feb-14 13:30N 40°43' W 074°01'1 2.5
2018-Feb-14 13:00N 40°44' W 074°02'1 2.3
2018-Feb-14 12:30N 40°43' W 074°01'1 2.3
2018-Feb-14 12:00N 40°44' W 074°02'1 2.6
2018-Feb-14 11:30N 40°43' W 074°01'1 2.5
2018-Feb-14 11:00N 40°44' W 074°02'2 4.4
2018-Feb-14 10:30N 40°46' W 074°01'0 0.0
2018-Feb-14 02:45N 40°46' W 074°01'314.1
2018-Feb-14 02:30N 40°43' W 074°01'1 2.3
2018-Feb-14 02:01N 40°44' W 074°02'0 0.0
2018-Feb-14 01:31N 40°44' W 074°02'0 0.0
2018-Feb-14 01:00N 40°44' W 074°02'0 0.1
2018-Feb-14 00:30N 40°44' W 074°02'1 2.4
2018-Feb-14 00:00N 40°43' W 074°01'1 2.5
2018-Feb-13 23:30N 40°44' W 074°02'1 2.4
2018-Feb-13 23:00N 40°43' W 074°01'1 2.4
2018-Feb-13 22:30N 40°44' W 074°02'1 2.3
2018-Feb-13 22:00N 40°43' W 074°01'1 2.3
2018-Feb-13 21:30N 40°44' W 074°02'1 2.5
2018-Feb-13 21:00N 40°43' W 074°01'1 2.5
2018-Feb-13 20:30N 40°44' W 074°02'1 2.4
2018-Feb-13 20:00N 40°43' W 074°01'0 0.0
2018-Feb-13 19:30N 40°43' W 074°01'1 2.4
2018-Feb-13 19:00N 40°44' W 074°02'0 0.1
2018-Feb-13 18:30N 40°44' W 074°02'0 0.0
2018-Feb-13 18:00N 40°44' W 074°02'0 0.1
2018-Feb-13 17:31N 40°44' W 074°02'0 0.1
2018-Feb-13 17:00N 40°44' W 074°02'0 0.0
2018-Feb-13 16:30N 40°44' W 074°02'0 0.0
2018-Feb-13 16:00N 40°44' W 074°02'0 0.1
2018-Feb-13 15:31N 40°44' W 074°02'0 0.0
2018-Feb-13 15:00N 40°44' W 074°02'1 2.4
2018-Feb-13 14:31N 40°43' W 074°01'1 2.3
2018-Feb-13 14:01N 40°44' W 074°02'1 2.4
2018-Feb-13 13:31N 40°43' W 074°01'1 2.4
2018-Feb-13 13:00N 40°44' W 074°02'1 2.4
2018-Feb-13 12:30N 40°43' W 074°01'1 2.4
2018-Feb-13 12:00N 40°44' W 074°02'1 2.5
2018-Feb-13 11:30N 40°43' W 074°01'1 2.5
2018-Feb-13 11:00N 40°44' W 074°02'2 4.5
2018-Feb-13 10:30N 40°46' W 074°01'0 0.0
2018-Feb-13 02:46N 40°46' W 074°01'312.6
2018-Feb-13 02:30N 40°43' W 074°01'1 2.3
2018-Feb-13 02:00N 40°44' W 074°02'0 0.0
2018-Feb-13 01:31N 40°44' W 074°02'0 0.1
2018-Feb-13 01:00N 40°44' W 074°01'0 0.0
2018-Feb-13 00:30N 40°44' W 074°01'1 2.3
2018-Feb-13 00:00N 40°43' W 074°01'1 2.3
2018-Feb-12 23:29N 40°44' W 074°02'1 2.6
2018-Feb-12 23:00N 40°43' W 074°01'1 2.3
2018-Feb-12 22:30N 40°44' W 074°01'1 2.3
2018-Feb-12 22:00N 40°43' W 074°01'1 2.4
2018-Feb-12 21:30N 40°44' W 074°02'1 2.4
2018-Feb-12 21:00N 40°43' W 074°01'1 2.4
2018-Feb-12 20:30N 40°44' W 074°02'1 2.5
2018-Feb-12 20:00N 40°43' W 074°01'0 0.1
2018-Feb-12 19:30N 40°43' W 074°01'1 2.4
2018-Feb-12 19:00N 40°44' W 074°02'0 0.1
2018-Feb-12 18:31N 40°44' W 074°02'0 0.0
2018-Feb-12 18:00N 40°44' W 074°02'0 0.0
2018-Feb-12 17:31N 40°44' W 074°02'0 0.0
2018-Feb-12 17:00N 40°44' W 074°02'0 0.0
2018-Feb-12 16:31N 40°44' W 074°02'0 0.0
2018-Feb-12 16:01N 40°44' W 074°02'0 0.1
2018-Feb-12 15:30N 40°44' W 074°02'0 0.1
2018-Feb-12 15:00N 40°44' W 074°02'1 2.4
2018-Feb-12 14:30N 40°43' W 074°01'1 2.5
2018-Feb-12 14:00N 40°44' W 074°02'1 2.5
2018-Feb-12 13:30N 40°43' W 074°01'1 2.4
2018-Feb-12 13:00N 40°44' W 074°02'1 2.4
2018-Feb-12 12:30N 40°43' W 074°01'1 2.4
2018-Feb-12 12:00N 40°44' W 074°02'1 2.4
2018-Feb-12 11:30N 40°43' W 074°01'1 2.4
2018-Feb-12 11:00N 40°44' W 074°02'  

Dump ship's entire track history